sensor_id;sensor_type;location;lat;lon;timestamp;P1;durP1;ratioP1;P2;durP2;ratioP2
74634;SDS011;63140;56.306;43.984;2022-11-20T00:00:04;9.70;;;5.57;;
74634;SDS011;63140;56.306;43.984;2022-11-20T00:02:32;8.60;;;4.80;;
74634;SDS011;63140;56.306;43.984;2022-11-20T00:04:58;7.97;;;4.47;;
74634;SDS011;63140;56.306;43.984;2022-11-20T00:07:24;9.18;;;4.57;;
74634;SDS011;63140;56.306;43.984;2022-11-20T00:09:50;8.77;;;4.20;;
74634;SDS011;63140;56.306;43.984;2022-11-20T00:12:15;8.38;;;4.47;;
74634;SDS011;63140;56.306;43.984;2022-11-20T00:14:41;9.07;;;4.53;;
74634;SDS011;63140;56.306;43.984;2022-11-20T00:17:07;9.98;;;4.25;;
74634;SDS011;63140;56.306;43.984;2022-11-20T00:19:33;7.63;;;4.38;;
74634;SDS011;63140;56.306;43.984;2022-11-20T00:21:59;7.00;;;5.20;;
74634;SDS011;63140;56.306;43.984;2022-11-20T00:24:25;9.02;;;4.93;;
74634;SDS011;63140;56.306;43.984;2022-11-20T00:26:51;7.63;;;4.20;;
74634;SDS011;63140;56.306;43.984;2022-11-20T00:29:16;8.90;;;5.50;;
74634;SDS011;63140;56.306;43.984;2022-11-20T00:31:42;8.37;;;4.00;;
74634;SDS011;63140;56.306;43.984;2022-11-20T00:34:09;9.77;;;4.95;;
74634;SDS011;63140;56.306;43.984;2022-11-20T00:36:34;11.32;;;5.70;;
74634;SDS011;63140;56.306;43.984;2022-11-20T00:39:00;8.63;;;4.27;;
74634;SDS011;63140;56.306;43.984;2022-11-20T00:41:27;7.13;;;5.13;;
74634;SDS011;63140;56.306;43.984;2022-11-20T00:43:54;10.88;;;4.93;;
74634;SDS011;63140;56.306;43.984;2022-11-20T00:46:21;10.05;;;5.45;;
74634;SDS011;63140;56.306;43.984;2022-11-20T00:48:49;7.57;;;4.17;;
74634;SDS011;63140;56.306;43.984;2022-11-20T00:51:17;9.05;;;3.75;;
74634;SDS011;63140;56.306;43.984;2022-11-20T00:53:44;7.82;;;4.60;;
74634;SDS011;63140;56.306;43.984;2022-11-20T00:56:11;9.38;;;4.65;;
74634;SDS011;63140;56.306;43.984;2022-11-20T00:58:39;11.68;;;5.63;;
74634;SDS011;63140;56.306;43.984;2022-11-20T01:01:08;8.43;;;4.80;;
74634;SDS011;63140;56.306;43.984;2022-11-20T01:03:40;12.45;;;4.75;;
74634;SDS011;63140;56.306;43.984;2022-11-20T01:06:09;11.13;;;5.72;;
74634;SDS011;63140;56.306;43.984;2022-11-20T01:08:42;10.13;;;4.30;;
74634;SDS011;63140;56.306;43.984;2022-11-20T01:11:12;8.15;;;5.38;;
74634;SDS011;63140;56.306;43.984;2022-11-20T01:13:44;9.87;;;4.80;;
74634;SDS011;63140;56.306;43.984;2022-11-20T01:16:14;7.07;;;4.00;;
74634;SDS011;63140;56.306;43.984;2022-11-20T01:18:43;10.05;;;4.78;;
74634;SDS011;63140;56.306;43.984;2022-11-20T01:21:12;7.75;;;4.28;;
74634;SDS011;63140;56.306;43.984;2022-11-20T01:23:40;9.40;;;5.60;;
74634;SDS011;63140;56.306;43.984;2022-11-20T01:26:08;9.43;;;4.30;;
74634;SDS011;63140;56.306;43.984;2022-11-20T01:28:36;9.82;;;4.97;;
74634;SDS011;63140;56.306;43.984;2022-11-20T01:31:10;9.00;;;4.35;;
74634;SDS011;63140;56.306;43.984;2022-11-20T01:33:40;8.40;;;4.80;;
74634;SDS011;63140;56.306;43.984;2022-11-20T01:36:07;11.20;;;5.10;;
74634;SDS011;63140;56.306;43.984;2022-11-20T01:38:35;9.73;;;4.93;;
74634;SDS011;63140;56.306;43.984;2022-11-20T01:41:01;12.60;;;5.78;;
74634;SDS011;63140;56.306;43.984;2022-11-20T01:43:27;9.93;;;4.53;;
74634;SDS011;63140;56.306;43.984;2022-11-20T01:51:23;9.80;;;4.33;;
74634;SDS011;63140;56.306;43.984;2022-11-20T01:53:57;10.18;;;5.03;;
74634;SDS011;63140;56.306;43.984;2022-11-20T01:56:26;9.20;;;4.68;;
74634;SDS011;63140;56.306;43.984;2022-11-20T01:58:54;9.38;;;4.22;;
74634;SDS011;63140;56.306;43.984;2022-11-20T02:01:23;9.07;;;5.72;;
74634;SDS011;63140;56.306;43.984;2022-11-20T02:03:49;8.10;;;4.47;;
74634;SDS011;63140;56.306;43.984;2022-11-20T02:06:29;7.88;;;5.18;;
74634;SDS011;63140;56.306;43.984;2022-11-20T02:08:58;9.35;;;5.00;;
74634;SDS011;63140;56.306;43.984;2022-11-20T02:11:24;8.20;;;4.68;;
74634;SDS011;63140;56.306;43.984;2022-11-20T02:13:50;9.10;;;5.13;;
74634;SDS011;63140;56.306;43.984;2022-11-20T02:18:47;10.43;;;4.80;;
74634;SDS011;63140;56.306;43.984;2022-11-20T02:23:59;7.90;;;4.73;;
74634;SDS011;63140;56.306;43.984;2022-11-20T02:29:30;13.77;;;6.15;;
74634;SDS011;63140;56.306;43.984;2022-11-20T02:32:00;9.13;;;4.85;;
74634;SDS011;63140;56.306;43.984;2022-11-20T02:34:27;9.90;;;5.90;;
74634;SDS011;63140;56.306;43.984;2022-11-20T02:36:54;9.30;;;4.80;;
74634;SDS011;63140;56.306;43.984;2022-11-20T02:39:22;9.27;;;4.43;;
74634;SDS011;63140;56.306;43.984;2022-11-20T02:41:51;7.28;;;4.93;;
74634;SDS011;63140;56.306;43.984;2022-11-20T02:44:19;7.88;;;4.50;;
74634;SDS011;63140;56.306;43.984;2022-11-20T02:46:45;12.13;;;5.45;;
74634;SDS011;63140;56.306;43.984;2022-11-20T02:49:11;9.17;;;4.17;;
74634;SDS011;63140;56.306;43.984;2022-11-20T02:51:37;8.00;;;4.53;;
74634;SDS011;63140;56.306;43.984;2022-11-20T02:54:03;7.85;;;4.43;;
74634;SDS011;63140;56.306;43.984;2022-11-20T02:56:29;9.40;;;5.07;;
74634;SDS011;63140;56.306;43.984;2022-11-20T02:58:55;9.23;;;4.87;;
74634;SDS011;63140;56.306;43.984;2022-11-20T03:01:22;8.30;;;4.03;;
74634;SDS011;63140;56.306;43.984;2022-11-20T03:03:48;7.60;;;4.60;;
74634;SDS011;63140;56.306;43.984;2022-11-20T03:06:14;11.15;;;5.20;;
74634;SDS011;63140;56.306;43.984;2022-11-20T03:08:42;8.30;;;5.27;;
74634;SDS011;63140;56.306;43.984;2022-11-20T03:11:08;11.18;;;4.95;;
74634;SDS011;63140;56.306;43.984;2022-11-20T03:13:34;8.60;;;5.28;;
74634;SDS011;63140;56.306;43.984;2022-11-20T03:16:22;11.35;;;5.00;;
74634;SDS011;63140;56.306;43.984;2022-11-20T03:18:48;9.15;;;4.68;;
74634;SDS011;63140;56.306;43.984;2022-11-20T03:21:14;11.80;;;5.00;;
74634;SDS011;63140;56.306;43.984;2022-11-20T03:23:41;9.18;;;4.40;;
74634;SDS011;63140;56.306;43.984;2022-11-20T03:26:19;9.80;;;4.57;;
74634;SDS011;63140;56.306;43.984;2022-11-20T03:28:48;10.52;;;5.60;;
74634;SDS011;63140;56.306;43.984;2022-11-20T03:31:16;10.70;;;4.60;;
74634;SDS011;63140;56.306;43.984;2022-11-20T03:33:44;7.70;;;4.57;;
74634;SDS011;63140;56.306;43.984;2022-11-20T03:36:11;12.38;;;5.15;;
74634;SDS011;63140;56.306;43.984;2022-11-20T03:38:38;9.98;;;5.43;;
74634;SDS011;63140;56.306;43.984;2022-11-20T03:41:05;6.90;;;4.17;;
74634;SDS011;63140;56.306;43.984;2022-11-20T03:43:33;8.38;;;4.35;;
74634;SDS011;63140;56.306;43.984;2022-11-20T03:45:59;8.05;;;4.68;;
74634;SDS011;63140;56.306;43.984;2022-11-20T03:48:25;11.20;;;5.60;;
74634;SDS011;63140;56.306;43.984;2022-11-20T03:50:52;8.88;;;5.75;;
74634;SDS011;63140;56.306;43.984;2022-11-20T03:53:31;10.27;;;5.60;;
74634;SDS011;63140;56.306;43.984;2022-11-20T03:55:57;7.50;;;4.25;;
74634;SDS011;63140;56.306;43.984;2022-11-20T03:58:23;8.65;;;3.97;;
74634;SDS011;63140;56.306;43.984;2022-11-20T04:00:48;8.50;;;4.37;;
74634;SDS011;63140;56.306;43.984;2022-11-20T04:03:14;9.82;;;5.35;;
74634;SDS011;63140;56.306;43.984;2022-11-20T04:05:40;9.40;;;5.03;;
74634;SDS011;63140;56.306;43.984;2022-11-20T04:08:06;9.47;;;5.03;;
74634;SDS011;63140;56.306;43.984;2022-11-20T04:10:32;7.43;;;4.03;;
74634;SDS011;63140;56.306;43.984;2022-11-20T04:12:58;9.82;;;5.47;;
74634;SDS011;63140;56.306;43.984;2022-11-20T04:15:24;10.53;;;5.07;;
74634;SDS011;63140;56.306;43.984;2022-11-20T04:17:50;8.60;;;4.50;;
74634;SDS011;63140;56.306;43.984;2022-11-20T04:20:16;10.75;;;5.63;;
74634;SDS011;63140;56.306;43.984;2022-11-20T04:22:41;9.70;;;4.90;;
74634;SDS011;63140;56.306;43.984;2022-11-20T04:25:08;10.30;;;4.90;;
74634;SDS011;63140;56.306;43.984;2022-11-20T04:27:34;16.38;;;6.85;;
74634;SDS011;63140;56.306;43.984;2022-11-20T04:29:59;8.37;;;5.40;;
74634;SDS011;63140;56.306;43.984;2022-11-20T04:32:25;9.10;;;5.00;;
74634;SDS011;63140;56.306;43.984;2022-11-20T04:34:51;11.23;;;5.20;;
74634;SDS011;63140;56.306;43.984;2022-11-20T04:37:17;7.77;;;5.27;;
74634;SDS011;63140;56.306;43.984;2022-11-20T04:39:44;7.85;;;5.15;;
74634;SDS011;63140;56.306;43.984;2022-11-20T04:42:10;10.45;;;4.70;;
74634;SDS011;63140;56.306;43.984;2022-11-20T04:44:53;11.38;;;5.65;;
74634;SDS011;63140;56.306;43.984;2022-11-20T04:47:20;8.20;;;4.80;;
74634;SDS011;63140;56.306;43.984;2022-11-20T04:49:46;10.50;;;5.68;;
74634;SDS011;63140;56.306;43.984;2022-11-20T04:52:12;8.40;;;5.70;;
74634;SDS011;63140;56.306;43.984;2022-11-20T04:54:38;10.70;;;5.60;;
74634;SDS011;63140;56.306;43.984;2022-11-20T04:57:04;8.27;;;5.90;;
74634;SDS011;63140;56.306;43.984;2022-11-20T04:59:30;10.80;;;6.22;;
74634;SDS011;63140;56.306;43.984;2022-11-20T05:01:55;11.98;;;5.72;;
74634;SDS011;63140;56.306;43.984;2022-11-20T05:04:21;12.13;;;5.53;;
74634;SDS011;63140;56.306;43.984;2022-11-20T05:06:47;10.38;;;4.78;;
74634;SDS011;63140;56.306;43.984;2022-11-20T05:09:14;10.05;;;6.38;;
74634;SDS011;63140;56.306;43.984;2022-11-20T05:11:40;10.03;;;5.47;;
74634;SDS011;63140;56.306;43.984;2022-11-20T05:14:06;8.27;;;5.28;;
74634;SDS011;63140;56.306;43.984;2022-11-20T05:16:33;11.88;;;5.55;;
74634;SDS011;63140;56.306;43.984;2022-11-20T05:19:00;8.07;;;5.03;;
74634;SDS011;63140;56.306;43.984;2022-11-20T05:21:25;11.93;;;5.55;;
74634;SDS011;63140;56.306;43.984;2022-11-20T05:23:52;9.60;;;5.40;;
74634;SDS011;63140;56.306;43.984;2022-11-20T05:26:20;12.55;;;6.75;;
74634;SDS011;63140;56.306;43.984;2022-11-20T05:28:47;7.03;;;4.43;;
74634;SDS011;63140;56.306;43.984;2022-11-20T05:31:14;14.85;;;5.53;;
74634;SDS011;63140;56.306;43.984;2022-11-20T05:33:43;8.02;;;4.70;;
74634;SDS011;63140;56.306;43.984;2022-11-20T05:36:10;12.75;;;5.68;;
74634;SDS011;63140;56.306;43.984;2022-11-20T05:38:37;15.50;;;7.60;;
74634;SDS011;63140;56.306;43.984;2022-11-20T05:41:10;11.07;;;5.07;;
74634;SDS011;63140;56.306;43.984;2022-11-20T05:43:39;10.80;;;5.50;;
74634;SDS011;63140;56.306;43.984;2022-11-20T05:46:07;11.18;;;5.97;;
74634;SDS011;63140;56.306;43.984;2022-11-20T05:48:34;12.70;;;5.68;;
74634;SDS011;63140;56.306;43.984;2022-11-20T05:51:02;10.95;;;5.97;;
74634;SDS011;63140;56.306;43.984;2022-11-20T05:53:29;11.87;;;6.00;;
74634;SDS011;63140;56.306;43.984;2022-11-20T05:55:56;11.02;;;5.55;;
74634;SDS011;63140;56.306;43.984;2022-11-20T05:58:30;9.60;;;5.55;;
74634;SDS011;63140;56.306;43.984;2022-11-20T06:01:06;11.68;;;6.20;;
74634;SDS011;63140;56.306;43.984;2022-11-20T06:03:32;12.48;;;6.65;;
74634;SDS011;63140;56.306;43.984;2022-11-20T06:05:59;10.53;;;5.33;;
74634;SDS011;63140;56.306;43.984;2022-11-20T06:08:25;14.60;;;5.20;;
74634;SDS011;63140;56.306;43.984;2022-11-20T06:10:51;12.63;;;6.00;;
74634;SDS011;63140;56.306;43.984;2022-11-20T06:13:17;11.07;;;5.80;;
74634;SDS011;63140;56.306;43.984;2022-11-20T06:15:47;13.27;;;5.93;;
74634;SDS011;63140;56.306;43.984;2022-11-20T06:18:17;12.35;;;5.57;;
74634;SDS011;63140;56.306;43.984;2022-11-20T06:20:44;13.00;;;6.65;;
74634;SDS011;63140;56.306;43.984;2022-11-20T06:23:10;9.80;;;5.03;;
74634;SDS011;63140;56.306;43.984;2022-11-20T06:25:40;12.38;;;5.30;;
74634;SDS011;63140;56.306;43.984;2022-11-20T06:28:06;10.60;;;5.55;;
74634;SDS011;63140;56.306;43.984;2022-11-20T06:30:33;9.07;;;5.13;;
74634;SDS011;63140;56.306;43.984;2022-11-20T06:32:58;12.55;;;6.70;;
74634;SDS011;63140;56.306;43.984;2022-11-20T06:35:24;11.80;;;5.90;;
74634;SDS011;63140;56.306;43.984;2022-11-20T06:37:50;15.43;;;5.93;;
74634;SDS011;63140;56.306;43.984;2022-11-20T06:40:16;12.25;;;6.00;;
74634;SDS011;63140;56.306;43.984;2022-11-20T06:42:42;11.93;;;5.30;;
74634;SDS011;63140;56.306;43.984;2022-11-20T06:45:08;11.75;;;5.72;;
74634;SDS011;63140;56.306;43.984;2022-11-20T06:47:34;12.32;;;6.40;;
74634;SDS011;63140;56.306;43.984;2022-11-20T06:50:00;15.15;;;6.78;;
74634;SDS011;63140;56.306;43.984;2022-11-20T06:52:26;10.20;;;5.63;;
74634;SDS011;63140;56.306;43.984;2022-11-20T06:54:52;15.77;;;5.65;;
74634;SDS011;63140;56.306;43.984;2022-11-20T06:57:18;13.35;;;6.63;;
74634;SDS011;63140;56.306;43.984;2022-11-20T06:59:44;15.10;;;5.82;;
74634;SDS011;63140;56.306;43.984;2022-11-20T07:02:11;13.23;;;5.73;;
74634;SDS011;63140;56.306;43.984;2022-11-20T07:04:40;11.67;;;6.13;;
74634;SDS011;63140;56.306;43.984;2022-11-20T07:07:06;16.77;;;6.03;;
74634;SDS011;63140;56.306;43.984;2022-11-20T07:09:32;9.77;;;5.07;;
74634;SDS011;63140;56.306;43.984;2022-11-20T07:12:01;13.23;;;6.07;;
74634;SDS011;63140;56.306;43.984;2022-11-20T07:14:27;13.15;;;5.43;;
74634;SDS011;63140;56.306;43.984;2022-11-20T07:16:54;13.00;;;4.97;;
74634;SDS011;63140;56.306;43.984;2022-11-20T07:19:23;11.68;;;5.88;;
74634;SDS011;63140;56.306;43.984;2022-11-20T07:21:49;12.30;;;6.68;;
74634;SDS011;63140;56.306;43.984;2022-11-20T07:24:15;13.87;;;6.30;;
74634;SDS011;63140;56.306;43.984;2022-11-20T07:26:41;13.15;;;5.90;;
74634;SDS011;63140;56.306;43.984;2022-11-20T07:29:07;11.98;;;6.30;;
74634;SDS011;63140;56.306;43.984;2022-11-20T07:31:33;16.10;;;7.40;;
74634;SDS011;63140;56.306;43.984;2022-11-20T07:34:01;14.55;;;6.85;;
74634;SDS011;63140;56.306;43.984;2022-11-20T07:36:27;12.82;;;7.05;;
74634;SDS011;63140;56.306;43.984;2022-11-20T07:38:53;10.02;;;5.85;;
74634;SDS011;63140;56.306;43.984;2022-11-20T07:41:19;9.20;;;5.57;;
74634;SDS011;63140;56.306;43.984;2022-11-20T07:43:45;10.70;;;5.95;;
74634;SDS011;63140;56.306;43.984;2022-11-20T07:46:11;11.35;;;5.65;;
74634;SDS011;63140;56.306;43.984;2022-11-20T07:48:37;11.63;;;5.27;;
74634;SDS011;63140;56.306;43.984;2022-11-20T07:51:03;11.02;;;6.05;;
74634;SDS011;63140;56.306;43.984;2022-11-20T07:53:28;15.57;;;6.90;;
74634;SDS011;63140;56.306;43.984;2022-11-20T07:55:58;14.30;;;6.40;;
74634;SDS011;63140;56.306;43.984;2022-11-20T07:58:26;12.73;;;5.87;;
74634;SDS011;63140;56.306;43.984;2022-11-20T08:00:55;13.18;;;6.30;;
74634;SDS011;63140;56.306;43.984;2022-11-20T08:03:21;11.77;;;6.43;;
74634;SDS011;63140;56.306;43.984;2022-11-20T08:05:52;14.18;;;6.40;;
74634;SDS011;63140;56.306;43.984;2022-11-20T08:08:23;13.48;;;6.68;;
74634;SDS011;63140;56.306;43.984;2022-11-20T08:10:49;18.40;;;7.33;;
74634;SDS011;63140;56.306;43.984;2022-11-20T08:13:18;15.50;;;7.05;;
74634;SDS011;63140;56.306;43.984;2022-11-20T08:16:02;15.50;;;6.47;;
74634;SDS011;63140;56.306;43.984;2022-11-20T08:18:28;11.98;;;6.53;;
74634;SDS011;63140;56.306;43.984;2022-11-20T08:20:54;14.83;;;7.40;;
74634;SDS011;63140;56.306;43.984;2022-11-20T08:23:23;11.75;;;6.20;;
74634;SDS011;63140;56.306;43.984;2022-11-20T08:25:49;12.98;;;6.50;;
74634;SDS011;63140;56.306;43.984;2022-11-20T08:28:16;13.52;;;6.45;;
74634;SDS011;63140;56.306;43.984;2022-11-20T08:30:42;10.77;;;6.90;;
74634;SDS011;63140;56.306;43.984;2022-11-20T08:33:08;13.02;;;6.60;;
74634;SDS011;63140;56.306;43.984;2022-11-20T08:35:35;16.42;;;7.03;;
74634;SDS011;63140;56.306;43.984;2022-11-20T08:38:05;11.65;;;6.07;;
74634;SDS011;63140;56.306;43.984;2022-11-20T08:40:37;14.57;;;6.55;;
74634;SDS011;63140;56.306;43.984;2022-11-20T08:43:02;10.17;;;6.27;;
74634;SDS011;63140;56.306;43.984;2022-11-20T08:45:31;18.95;;;7.90;;
74634;SDS011;63140;56.306;43.984;2022-11-20T08:48:03;16.80;;;7.88;;
74634;SDS011;63140;56.306;43.984;2022-11-20T08:50:35;15.35;;;7.57;;
74634;SDS011;63140;56.306;43.984;2022-11-20T08:53:02;15.23;;;6.23;;
74634;SDS011;63140;56.306;43.984;2022-11-20T08:55:31;13.95;;;5.75;;
74634;SDS011;63140;56.306;43.984;2022-11-20T08:57:57;14.45;;;6.50;;
74634;SDS011;63140;56.306;43.984;2022-11-20T09:00:25;11.85;;;7.18;;
74634;SDS011;63140;56.306;43.984;2022-11-20T09:02:55;17.43;;;6.87;;
74634;SDS011;63140;56.306;43.984;2022-11-20T09:05:20;17.77;;;6.70;;
74634;SDS011;63140;56.306;43.984;2022-11-20T09:07:46;14.15;;;7.45;;
74634;SDS011;63140;56.306;43.984;2022-11-20T09:10:12;13.80;;;7.15;;
74634;SDS011;63140;56.306;43.984;2022-11-20T09:12:38;12.83;;;6.87;;
74634;SDS011;63140;56.306;43.984;2022-11-20T09:15:04;20.33;;;8.70;;
74634;SDS011;63140;56.306;43.984;2022-11-20T09:17:30;22.70;;;9.57;;
74634;SDS011;63140;56.306;43.984;2022-11-20T09:19:56;15.73;;;7.97;;
74634;SDS011;63140;56.306;43.984;2022-11-20T09:22:22;17.55;;;7.90;;
74634;SDS011;63140;56.306;43.984;2022-11-20T09:24:48;12.88;;;6.30;;
74634;SDS011;63140;56.306;43.984;2022-11-20T09:27:14;13.43;;;6.80;;
74634;SDS011;63140;56.306;43.984;2022-11-20T09:29:40;15.40;;;6.80;;
74634;SDS011;63140;56.306;43.984;2022-11-20T09:32:05;15.93;;;6.95;;
74634;SDS011;63140;56.306;43.984;2022-11-20T09:34:31;14.03;;;5.43;;
74634;SDS011;63140;56.306;43.984;2022-11-20T09:36:57;16.05;;;7.40;;
74634;SDS011;63140;56.306;43.984;2022-11-20T09:39:23;13.95;;;6.80;;
74634;SDS011;63140;56.306;43.984;2022-11-20T09:41:59;12.93;;;5.63;;
74634;SDS011;63140;56.306;43.984;2022-11-20T09:53:16;11.13;;;6.23;;
74634;SDS011;63140;56.306;43.984;2022-11-20T09:56:06;12.02;;;6.00;;
74634;SDS011;63140;56.306;43.984;2022-11-20T09:58:42;12.10;;;6.47;;
74634;SDS011;63140;56.306;43.984;2022-11-20T10:06:17;10.37;;;5.67;;
74634;SDS011;63140;56.306;43.984;2022-11-20T10:08:59;15.00;;;5.95;;
74634;SDS011;63140;56.306;43.984;2022-11-20T10:14:38;15.27;;;6.22;;
74634;SDS011;63140;56.306;43.984;2022-11-20T10:25:38;21.23;;;8.02;;
74634;SDS011;63140;56.306;43.984;2022-11-20T10:28:28;14.50;;;6.53;;
74634;SDS011;63140;56.306;43.984;2022-11-20T10:31:00;11.63;;;7.25;;
74634;SDS011;63140;56.306;43.984;2022-11-20T10:33:29;13.50;;;6.33;;
74634;SDS011;63140;56.306;43.984;2022-11-20T10:36:05;14.70;;;7.05;;
74634;SDS011;63140;56.306;43.984;2022-11-20T10:41:08;13.05;;;6.32;;
74634;SDS011;63140;56.306;43.984;2022-11-20T10:44:02;12.90;;;6.18;;
74634;SDS011;63140;56.306;43.984;2022-11-20T10:46:39;13.17;;;6.07;;
74634;SDS011;63140;56.306;43.984;2022-11-20T10:49:15;12.77;;;6.72;;
74634;SDS011;63140;56.306;43.984;2022-11-20T10:54:42;14.30;;;6.22;;
74634;SDS011;63140;56.306;43.984;2022-11-20T11:00:06;15.50;;;5.70;;
74634;SDS011;63140;56.306;43.984;2022-11-20T11:02:52;16.27;;;6.45;;
74634;SDS011;63140;56.306;43.984;2022-11-20T11:07:50;14.13;;;6.10;;
74634;SDS011;63140;56.306;43.984;2022-11-20T11:12:48;14.97;;;6.43;;
74634;SDS011;63140;56.306;43.984;2022-11-20T11:15:24;11.48;;;6.28;;
74634;SDS011;63140;56.306;43.984;2022-11-20T11:17:54;13.88;;;6.45;;
74634;SDS011;63140;56.306;43.984;2022-11-20T11:20:22;15.38;;;6.05;;
74634;SDS011;63140;56.306;43.984;2022-11-20T11:22:51;19.75;;;7.05;;
74634;SDS011;63140;56.306;43.984;2022-11-20T11:25:31;12.83;;;6.07;;
74634;SDS011;63140;56.306;43.984;2022-11-20T11:28:17;11.85;;;5.90;;
74634;SDS011;63140;56.306;43.984;2022-11-20T11:30:46;10.70;;;6.10;;
74634;SDS011;63140;56.306;43.984;2022-11-20T11:33:21;12.63;;;6.18;;
74634;SDS011;63140;56.306;43.984;2022-11-20T11:35:49;12.25;;;6.00;;
74634;SDS011;63140;56.306;43.984;2022-11-20T11:38:43;13.00;;;6.27;;
74634;SDS011;63140;56.306;43.984;2022-11-20T11:41:12;11.38;;;5.68;;
74634;SDS011;63140;56.306;43.984;2022-11-20T11:44:18;11.18;;;6.55;;
74634;SDS011;63140;56.306;43.984;2022-11-20T11:46:57;15.60;;;6.60;;
74634;SDS011;63140;56.306;43.984;2022-11-20T11:49:23;16.58;;;6.55;;
74634;SDS011;63140;56.306;43.984;2022-11-20T11:51:58;12.43;;;6.87;;
74634;SDS011;63140;56.306;43.984;2022-11-20T11:57:16;14.82;;;7.78;;
74634;SDS011;63140;56.306;43.984;2022-11-20T12:00:15;17.55;;;8.60;;
74634;SDS011;63140;56.306;43.984;2022-11-20T12:16:45;16.37;;;7.53;;
74634;SDS011;63140;56.306;43.984;2022-11-20T12:19:12;13.68;;;7.45;;
74634;SDS011;63140;56.306;43.984;2022-11-20T12:21:49;17.83;;;7.50;;
74634;SDS011;63140;56.306;43.984;2022-11-20T12:35:35;18.20;;;7.55;;
74634;SDS011;63140;56.306;43.984;2022-11-20T12:38:26;19.95;;;7.70;;
74634;SDS011;63140;56.306;43.984;2022-11-20T12:52:51;18.63;;;8.20;;
74634;SDS011;63140;56.306;43.984;2022-11-20T13:00:59;15.00;;;7.18;;
74634;SDS011;63140;56.306;43.984;2022-11-20T13:06:25;15.52;;;6.53;;
74634;SDS011;63140;56.306;43.984;2022-11-20T13:08:55;15.10;;;7.75;;
74634;SDS011;63140;56.306;43.984;2022-11-20T13:11:41;13.10;;;6.63;;
74634;SDS011;63140;56.306;43.984;2022-11-20T13:14:13;18.27;;;8.45;;
74634;SDS011;63140;56.306;43.984;2022-11-20T13:16:52;14.43;;;7.95;;
74634;SDS011;63140;56.306;43.984;2022-11-20T13:19:29;18.45;;;7.75;;
74634;SDS011;63140;56.306;43.984;2022-11-20T13:21:55;16.70;;;8.00;;
74634;SDS011;63140;56.306;43.984;2022-11-20T13:29:33;17.05;;;7.22;;
74634;SDS011;63140;56.306;43.984;2022-11-20T13:32:22;20.50;;;8.35;;
74634;SDS011;63140;56.306;43.984;2022-11-20T13:34:56;17.30;;;7.72;;
74634;SDS011;63140;56.306;43.984;2022-11-20T13:42:39;16.77;;;8.43;;
74634;SDS011;63140;56.306;43.984;2022-11-20T13:47:52;17.33;;;8.52;;
74634;SDS011;63140;56.306;43.984;2022-11-20T13:50:19;17.20;;;8.63;;
74634;SDS011;63140;56.306;43.984;2022-11-20T14:01:21;14.68;;;8.27;;
74634;SDS011;63140;56.306;43.984;2022-11-20T14:03:49;15.60;;;8.07;;
74634;SDS011;63140;56.306;43.984;2022-11-20T14:06:24;22.75;;;9.07;;
74634;SDS011;63140;56.306;43.984;2022-11-20T14:08:52;14.57;;;8.07;;
74634;SDS011;63140;56.306;43.984;2022-11-20T14:11:20;17.45;;;8.30;;
74634;SDS011;63140;56.306;43.984;2022-11-20T14:16:38;15.83;;;7.77;;
74634;SDS011;63140;56.306;43.984;2022-11-20T14:21:46;14.65;;;7.32;;
74634;SDS011;63140;56.306;43.984;2022-11-20T14:24:21;12.20;;;6.82;;
74634;SDS011;63140;56.306;43.984;2022-11-20T14:26:48;14.27;;;7.57;;
74634;SDS011;63140;56.306;43.984;2022-11-20T14:29:16;17.93;;;8.20;;
74634;SDS011;63140;56.306;43.984;2022-11-20T14:31:44;18.80;;;8.75;;
74634;SDS011;63140;56.306;43.984;2022-11-20T14:34:15;15.05;;;7.82;;
74634;SDS011;63140;56.306;43.984;2022-11-20T14:36:45;18.35;;;8.05;;
74634;SDS011;63140;56.306;43.984;2022-11-20T14:39:12;13.47;;;6.97;;
74634;SDS011;63140;56.306;43.984;2022-11-20T14:41:51;11.63;;;6.17;;
74634;SDS011;63140;56.306;43.984;2022-11-20T14:44:19;16.65;;;7.65;;
74634;SDS011;63140;56.306;43.984;2022-11-20T14:46:50;15.02;;;7.32;;
74634;SDS011;63140;56.306;43.984;2022-11-20T14:49:18;14.90;;;7.57;;
74634;SDS011;63140;56.306;43.984;2022-11-20T14:51:44;17.52;;;7.38;;
74634;SDS011;63140;56.306;43.984;2022-11-20T14:54:15;14.40;;;7.13;;
74634;SDS011;63140;56.306;43.984;2022-11-20T14:56:59;15.65;;;7.20;;
74634;SDS011;63140;56.306;43.984;2022-11-20T14:59:28;13.48;;;7.25;;
74634;SDS011;63140;56.306;43.984;2022-11-20T15:01:57;14.82;;;7.95;;
74634;SDS011;63140;56.306;43.984;2022-11-20T15:04:29;14.75;;;7.90;;
74634;SDS011;63140;56.306;43.984;2022-11-20T15:06:56;19.03;;;8.00;;
74634;SDS011;63140;56.306;43.984;2022-11-20T15:09:23;14.80;;;7.82;;
74634;SDS011;63140;56.306;43.984;2022-11-20T15:12:00;17.08;;;7.55;;
74634;SDS011;63140;56.306;43.984;2022-11-20T15:14:28;15.90;;;7.35;;
74634;SDS011;63140;56.306;43.984;2022-11-20T15:16:55;15.60;;;7.20;;
74634;SDS011;63140;56.306;43.984;2022-11-20T15:19:22;14.97;;;7.70;;
74634;SDS011;63140;56.306;43.984;2022-11-20T15:21:50;15.45;;;7.93;;
74634;SDS011;63140;56.306;43.984;2022-11-20T15:24:16;12.43;;;7.47;;
74634;SDS011;63140;56.306;43.984;2022-11-20T15:26:43;14.15;;;7.53;;
74634;SDS011;63140;56.306;43.984;2022-11-20T15:29:09;15.82;;;7.85;;
74634;SDS011;63140;56.306;43.984;2022-11-20T15:31:37;16.67;;;7.80;;
74634;SDS011;63140;56.306;43.984;2022-11-20T15:34:11;14.48;;;6.90;;
74634;SDS011;63140;56.306;43.984;2022-11-20T15:36:39;12.80;;;6.90;;
74634;SDS011;63140;56.306;43.984;2022-11-20T15:39:05;14.10;;;7.18;;
74634;SDS011;63140;56.306;43.984;2022-11-20T15:41:33;11.85;;;6.80;;
74634;SDS011;63140;56.306;43.984;2022-11-20T15:43:59;11.60;;;6.37;;
74634;SDS011;63140;56.306;43.984;2022-11-20T15:46:26;14.85;;;7.03;;
74634;SDS011;63140;56.306;43.984;2022-11-20T15:48:54;16.73;;;7.13;;
74634;SDS011;63140;56.306;43.984;2022-11-20T15:51:41;14.45;;;7.13;;
74634;SDS011;63140;56.306;43.984;2022-11-20T15:54:16;15.35;;;7.65;;
74634;SDS011;63140;56.306;43.984;2022-11-20T15:56:45;12.47;;;6.70;;
74634;SDS011;63140;56.306;43.984;2022-11-20T15:59:12;13.38;;;7.28;;
74634;SDS011;63140;56.306;43.984;2022-11-20T16:01:40;15.25;;;6.43;;
74634;SDS011;63140;56.306;43.984;2022-11-20T16:04:14;17.77;;;7.60;;
74634;SDS011;63140;56.306;43.984;2022-11-20T16:06:41;13.38;;;6.65;;
74634;SDS011;63140;56.306;43.984;2022-11-20T16:09:07;15.07;;;7.23;;
74634;SDS011;63140;56.306;43.984;2022-11-20T16:11:34;11.20;;;6.03;;
74634;SDS011;63140;56.306;43.984;2022-11-20T16:14:03;13.27;;;6.53;;
74634;SDS011;63140;56.306;43.984;2022-11-20T16:16:47;13.43;;;7.25;;
74634;SDS011;63140;56.306;43.984;2022-11-20T16:19:14;13.07;;;6.20;;
74634;SDS011;63140;56.306;43.984;2022-11-20T16:21:41;16.48;;;6.75;;
74634;SDS011;63140;56.306;43.984;2022-11-20T16:24:08;12.77;;;7.05;;
74634;SDS011;63140;56.306;43.984;2022-11-20T16:26:36;11.65;;;5.78;;
74634;SDS011;63140;56.306;43.984;2022-11-20T16:29:03;15.00;;;8.18;;
74634;SDS011;63140;56.306;43.984;2022-11-20T16:31:30;13.63;;;6.53;;
74634;SDS011;63140;56.306;43.984;2022-11-20T16:33:58;16.67;;;7.63;;
74634;SDS011;63140;56.306;43.984;2022-11-20T16:36:25;18.00;;;8.65;;
74634;SDS011;63140;56.306;43.984;2022-11-20T16:38:54;19.00;;;8.13;;
74634;SDS011;63140;56.306;43.984;2022-11-20T16:41:22;12.65;;;6.68;;
74634;SDS011;63140;56.306;43.984;2022-11-20T16:43:49;14.20;;;6.50;;